createdAt,value
2022-12-06T00:01:13.092Z,6.57
2022-12-06T00:03:45.627Z,6.00
2022-12-06T00:06:16.661Z,6.50
2022-12-06T00:08:45.965Z,6.47
2022-12-06T00:11:17.062Z,5.87
2022-12-06T00:13:46.141Z,5.73
2022-12-06T00:16:16.767Z,6.27
2022-12-06T00:18:47.668Z,5.67
2022-12-06T00:21:17.598Z,6.07
2022-12-06T00:23:47.711Z,5.97
2022-12-06T00:26:17.137Z,6.30
2022-12-06T00:28:45.743Z,6.70
2022-12-06T00:31:17.361Z,6.50
2022-12-06T00:33:47.350Z,5.53
2022-12-06T00:36:17.362Z,6.23
2022-12-06T00:38:46.233Z,5.17
2022-12-06T00:41:16.153Z,5.67
2022-12-06T00:43:44.765Z,5.47
2022-12-06T00:46:15.698Z,5.43
2022-12-06T00:48:44.180Z,6.03
2022-12-06T00:51:13.910Z,5.57
2022-12-06T00:53:42.529Z,5.30
2022-12-06T00:56:10.994Z,6.43
2022-12-06T00:58:39.104Z,5.80
2022-12-06T01:01:11.613Z,5.23
2022-12-06T01:03:39.980Z,5.80
2022-12-06T01:06:10.223Z,5.00
2022-12-06T01:08:41.098Z,5.43
2022-12-06T01:11:10.105Z,6.20
2022-12-06T01:13:38.377Z,6.67
2022-12-06T01:16:08.174Z,5.67
2022-12-06T01:18:37.015Z,5.80
2022-12-06T01:21:07.069Z,6.40
2022-12-06T01:23:35.447Z,6.17
2022-12-06T01:26:05.205Z,6.00
2022-12-06T01:28:35.079Z,5.43
2022-12-06T01:31:08.728Z,6.00
2022-12-06T01:33:36.916Z,5.37
2022-12-06T01:36:05.523Z,6.10
2022-12-06T01:38:33.834Z,5.87
2022-12-06T01:41:02.078Z,6.50
2022-12-06T01:43:37.663Z,6.13
2022-12-06T01:46:16.037Z,6.37
2022-12-06T01:48:44.313Z,7.37
2022-12-06T01:51:15.215Z,7.93
2022-12-06T01:53:48.235Z,6.77
2022-12-06T01:56:16.606Z,6.90
2022-12-06T01:58:47.525Z,5.07
2022-12-06T02:01:15.945Z,6.30
2022-12-06T02:03:45.414Z,5.40
2022-12-06T02:06:14.045Z,4.30
2022-12-06T02:08:42.557Z,5.00
2022-12-06T02:11:10.613Z,4.70
2022-12-06T02:13:39.673Z,4.50
2022-12-06T02:16:40.215Z,5.37
2022-12-06T02:19:29.577Z,4.70
2022-12-06T02:22:08.713Z,4.90
2022-12-06T02:24:57.958Z,5.50
2022-12-06T02:27:55.980Z,4.73
2022-12-06T02:30:40.031Z,5.03
2022-12-06T02:33:12.450Z,5.27
2022-12-06T02:35:45.198Z,5.57
2022-12-06T02:38:18.054Z,4.60
2022-12-06T02:40:51.461Z,5.70
2022-12-06T02:43:22.994Z,5.43
2022-12-06T02:45:56.082Z,6.27
2022-12-06T02:48:26.696Z,5.70
2022-12-06T02:50:58.451Z,5.40
2022-12-06T02:53:29.133Z,5.47
2022-12-06T02:55:58.506Z,4.90
2022-12-06T02:58:26.683Z,4.43
2022-12-06T03:00:58.703Z,4.03
2022-12-06T03:03:56.105Z,4.30
2022-12-06T03:06:51.697Z,4.50
2022-12-06T03:09:30.051Z,5.50
2022-12-06T03:12:05.112Z,4.33
2022-12-06T03:14:39.574Z,5.50
2022-12-06T03:17:16.950Z,4.70
2022-12-06T03:19:49.033Z,5.93
2022-12-06T03:22:23.897Z,5.83
2022-12-06T03:24:53.375Z,5.17
2022-12-06T03:27:24.239Z,5.37
2022-12-06T03:29:56.940Z,5.93
2022-12-06T03:32:30.670Z,5.37
2022-12-06T03:35:03.698Z,5.00
2022-12-06T03:37:33.536Z,5.23
2022-12-06T03:40:08.081Z,5.90
2022-12-06T03:42:36.802Z,5.37
2022-12-06T03:45:06.314Z,4.43
2022-12-06T03:47:44.958Z,5.50
2022-12-06T03:50:18.594Z,5.60
2022-12-06T03:52:47.326Z,5.87
2022-12-06T03:55:15.394Z,5.50
2022-12-06T03:57:44.822Z,4.77
2022-12-06T04:00:16.608Z,5.13
2022-12-06T04:02:46.371Z,5.20
2022-12-06T04:05:14.532Z,4.50
2022-12-06T04:07:42.848Z,4.90
2022-12-06T04:10:11.521Z,5.07
2022-12-06T04:12:56.882Z,5.27
2022-12-06T04:15:25.307Z,5.10
2022-12-06T04:18:13.843Z,5.20
2022-12-06T04:21:02.270Z,5.07
2022-12-06T04:23:31.553Z,5.03
2022-12-06T04:25:59.596Z,4.30
2022-12-06T04:28:45.273Z,4.90
2022-12-06T04:31:31.040Z,4.80
2022-12-06T04:34:18.162Z,4.40
2022-12-06T04:37:04.281Z,3.97
2022-12-06T04:39:33.459Z,4.83
2022-12-06T04:42:19.334Z,4.93
2022-12-06T04:44:47.542Z,4.20
2022-12-06T04:47:15.921Z,4.20
2022-12-06T04:49:45.853Z,4.10
2022-12-06T04:52:14.135Z,4.30
2022-12-06T04:54:43.187Z,4.40
2022-12-06T04:57:13.493Z,4.20
2022-12-06T04:59:43.559Z,3.77
2022-12-06T05:02:15.528Z,4.70
2022-12-06T05:04:45.178Z,4.13
2022-12-06T05:07:13.447Z,4.40
2022-12-06T05:09:41.684Z,4.30
2022-12-06T05:12:09.952Z,4.73
2022-12-06T05:14:38.176Z,4.17
2022-12-06T05:17:06.349Z,3.63
2022-12-06T05:19:34.517Z,3.93
2022-12-06T05:22:05.183Z,4.77
2022-12-06T05:24:33.438Z,4.50
2022-12-06T05:27:01.551Z,4.47
2022-12-06T05:29:29.718Z,4.63
2022-12-06T05:31:57.858Z,5.03
2022-12-06T05:34:26.339Z,5.17
2022-12-06T05:36:54.499Z,4.60
2022-12-06T05:39:24.436Z,5.23
2022-12-06T05:41:52.563Z,5.23
2022-12-06T05:44:20.645Z,4.60
2022-12-06T05:46:48.743Z,4.93
2022-12-06T05:49:16.891Z,4.10
2022-12-06T05:51:45.305Z,4.90
2022-12-06T05:54:13.390Z,3.87
2022-12-06T05:56:42.850Z,4.90
2022-12-06T05:59:11.034Z,5.27
2022-12-06T06:01:39.211Z,5.07
2022-12-06T06:04:07.370Z,4.83
2022-12-06T06:06:35.617Z,5.53
2022-12-06T06:09:04.090Z,4.57
2022-12-06T06:11:32.206Z,4.50
2022-12-06T06:14:01.755Z,4.90
2022-12-06T06:16:30.188Z,5.40
2022-12-06T06:18:58.336Z,4.43
2022-12-06T06:21:26.563Z,5.00
2022-12-06T06:23:56.920Z,4.80
2022-12-06T06:26:25.846Z,5.30
2022-12-06T06:28:56.295Z,4.20
2022-12-06T06:31:25.878Z,4.00
2022-12-06T06:33:54.016Z,3.80
2022-12-06T06:36:22.192Z,4.13
2022-12-06T06:38:50.470Z,4.20
2022-12-06T06:41:18.703Z,3.93
2022-12-06T06:43:46.831Z,3.77
2022-12-06T06:46:15.076Z,4.70
2022-12-06T06:48:44.653Z,3.97
2022-12-06T06:51:14.191Z,3.63
2022-12-06T06:53:42.611Z,3.60
2022-12-06T06:56:11.156Z,4.30
2022-12-06T06:58:39.827Z,3.87
2022-12-06T07:01:09.855Z,3.90
2022-12-06T07:03:38.033Z,4.17
2022-12-06T07:06:10.089Z,4.37
2022-12-06T07:08:39.564Z,5.97
2022-12-06T07:11:08.423Z,5.20
2022-12-06T07:13:37.792Z,5.03
2022-12-06T07:16:07.379Z,4.70
2022-12-06T07:18:35.951Z,4.73
2022-12-06T07:21:06.631Z,4.90
2022-12-06T07:23:37.002Z,4.27
2022-12-06T07:26:07.853Z,4.90
2022-12-06T07:28:36.875Z,5.67
2022-12-06T07:31:12.579Z,5.10
2022-12-06T07:33:41.562Z,5.97
2022-12-06T07:36:12.823Z,5.40
2022-12-06T07:38:43.906Z,5.03
2022-12-06T07:41:31.762Z,5.30
2022-12-06T07:44:19.189Z,5.07
2022-12-06T07:46:48.375Z,5.50
2022-12-06T07:49:17.540Z,5.20
2022-12-06T07:51:46.591Z,5.00
2022-12-06T07:54:17.822Z,4.63
2022-12-06T07:56:46.344Z,4.47
2022-12-06T07:59:14.806Z,6.70
2022-12-06T08:01:43.354Z,5.80
2022-12-06T08:04:11.687Z,5.07
2022-12-06T08:06:40.637Z,5.33
2022-12-06T08:09:09.187Z,6.00
2022-12-06T08:11:39.233Z,6.33
2022-12-06T08:14:07.760Z,6.73
2022-12-06T08:16:35.949Z,7.57
2022-12-06T08:19:04.221Z,7.60
2022-12-06T08:21:32.670Z,6.00
2022-12-06T08:24:00.897Z,5.97
2022-12-06T08:26:29.051Z,7.07
2022-12-06T08:29:01.362Z,6.27
2022-12-06T08:31:31.059Z,11.63
2022-12-06T08:33:59.532Z,12.43
2022-12-06T08:36:28.555Z,11.20
2022-12-06T08:38:57.376Z,10.07
2022-12-06T08:41:43.238Z,8.80
2022-12-06T08:44:14.906Z,7.70
2022-12-06T08:46:43.512Z,7.80
2022-12-06T08:49:13.389Z,8.73
2022-12-06T08:51:42.029Z,10.87
2022-12-06T08:54:14.214Z,17.00
2022-12-06T08:56:43.636Z,13.60
2022-12-06T08:59:13.535Z,9.80
2022-12-06T09:01:42.348Z,9.53
2022-12-06T09:04:13.373Z,8.53
2022-12-06T09:06:43.740Z,9.40
2022-12-06T09:09:13.207Z,7.97
2022-12-06T09:11:42.045Z,7.47
2022-12-06T09:14:19.559Z,6.80
2022-12-06T09:16:50.050Z,7.30
2022-12-06T09:19:18.441Z,10.53
2022-12-06T09:21:46.581Z,10.33
2022-12-06T09:24:17.021Z,11.37
2022-12-06T09:26:45.351Z,11.30
2022-12-06T09:29:17.010Z,13.83
2022-12-06T09:31:45.236Z,13.13
2022-12-06T09:34:14.238Z,14.63
2022-12-06T09:36:46.598Z,14.57
2022-12-06T09:39:19.589Z,15.17
2022-12-06T09:42:26.594Z,15.67
2022-12-06T09:45:16.872Z,14.17
2022-12-06T09:48:08.207Z,14.33
2022-12-06T09:50:45.306Z,14.77
2022-12-06T09:53:22.245Z,14.27
2022-12-06T09:56:02.498Z,13.73
2022-12-06T09:58:43.596Z,13.60
2022-12-06T10:01:27.781Z,13.80
2022-12-06T10:04:08.916Z,13.67
2022-12-06T10:06:43.295Z,14.70
2022-12-06T10:09:23.613Z,13.77
2022-12-06T10:12:10.494Z,12.67
2022-12-06T10:14:53.733Z,13.10
2022-12-06T10:17:29.814Z,11.53
2022-12-06T10:20:08.775Z,11.00
2022-12-06T10:22:49.290Z,8.97
2022-12-06T10:25:23.829Z,9.50
2022-12-06T10:28:01.965Z,9.90
2022-12-06T10:30:30.707Z,8.30
2022-12-06T10:33:06.041Z,8.80
2022-12-06T10:35:45.735Z,9.00
2022-12-06T10:38:23.650Z,10.00
2022-12-06T10:41:01.475Z,9.77
2022-12-06T10:43:35.141Z,11.27
2022-12-06T10:46:27.239Z,10.97
2022-12-06T10:49:05.547Z,10.80
2022-12-06T10:51:41.021Z,10.70
2022-12-06T10:54:21.076Z,11.00
2022-12-06T10:56:52.950Z,10.07
2022-12-06T10:59:33.490Z,8.83
2022-12-06T11:02:14.614Z,9.73
2022-12-06T11:04:47.352Z,8.13
2022-12-06T11:07:19.287Z,7.63
2022-12-06T11:09:50.981Z,8.37
2022-12-06T11:12:30.994Z,8.17
2022-12-06T11:15:07.024Z,7.20
2022-12-06T11:17:40.434Z,7.90
2022-12-06T11:20:21.508Z,6.67
2022-12-06T11:23:05.950Z,7.23
2022-12-06T11:25:42.632Z,7.00
2022-12-06T11:28:24.498Z,7.47
2022-12-06T11:30:55.071Z,7.20
2022-12-06T11:33:30.665Z,7.17
2022-12-06T11:36:03.506Z,8.20
2022-12-06T11:38:32.479Z,6.07
2022-12-06T11:41:01.950Z,6.60
2022-12-06T11:43:35.244Z,6.63
2022-12-06T11:46:05.982Z,6.90
2022-12-06T11:48:35.609Z,5.63
2022-12-06T11:51:06.518Z,6.47
2022-12-06T11:53:40.487Z,6.70
2022-12-06T11:56:15.692Z,7.07
2022-12-06T11:58:50.216Z,6.63
2022-12-06T12:01:18.353Z,5.90
2022-12-06T12:03:48.355Z,7.77
2022-12-06T12:06:24.439Z,7.37
2022-12-06T12:08:56.607Z,7.37
2022-12-06T12:11:28.023Z,7.20
2022-12-06T12:14:00.032Z,7.33
2022-12-06T12:16:32.501Z,6.10
2022-12-06T12:19:03.468Z,7.47
2022-12-06T12:21:39.714Z,8.07
2022-12-06T12:25:17.345Z,7.80
2022-12-06T12:27:42.320Z,8.20
2022-12-06T12:30:28.802Z,8.87
2022-12-06T12:33:20.638Z,8.80
2022-12-06T12:35:52.255Z,8.97
2022-12-06T12:38:25.527Z,8.87
2022-12-06T12:40:57.973Z,9.00
2022-12-06T12:43:30.351Z,8.63
2022-12-06T12:46:22.970Z,8.17
2022-12-06T12:48:52.997Z,8.40
2022-12-06T12:51:33.976Z,8.00
2022-12-06T12:54:04.529Z,8.67
2022-12-06T12:56:36.311Z,8.90
2022-12-06T12:59:13.378Z,8.47
2022-12-06T13:01:48.768Z,8.43
2022-12-06T13:04:28.273Z,9.50
2022-12-06T13:07:00.817Z,8.90
2022-12-06T13:09:34.679Z,9.10
2022-12-06T13:12:07.762Z,9.30
2022-12-06T13:14:39.260Z,8.77
2022-12-06T13:17:10.824Z,8.20
2022-12-06T13:19:42.865Z,7.73
2022-12-06T13:22:17.271Z,9.27
2022-12-06T13:24:48.639Z,8.93
2022-12-06T13:27:21.746Z,8.33
2022-12-06T13:29:56.957Z,8.47
2022-12-06T13:32:30.076Z,7.03
2022-12-06T13:35:02.799Z,8.00
2022-12-06T13:37:37.288Z,7.80
2022-12-06T13:40:07.686Z,8.63
2022-12-06T13:42:46.711Z,7.20
2022-12-06T13:45:41.863Z,7.93
2022-12-06T13:48:39.150Z,8.40
2022-12-06T13:51:12.365Z,8.10
2022-12-06T13:54:17.798Z,8.60
2022-12-06T13:56:46.010Z,7.80
2022-12-06T13:59:43.390Z,8.57
2022-12-06T14:02:51.430Z,8.50
2022-12-06T14:08:31.766Z,8.20
2022-12-06T14:11:15.963Z,8.67
2022-12-06T14:13:46.544Z,7.77
2022-12-06T14:16:23.265Z,8.80
2022-12-06T14:18:52.073Z,7.70
2022-12-06T14:21:25.530Z,7.73
2022-12-06T14:23:53.681Z,8.43
2022-12-06T14:26:25.654Z,7.43
2022-12-06T14:28:55.849Z,8.67
2022-12-06T14:31:39.229Z,7.53
2022-12-06T14:34:07.676Z,7.40
2022-12-06T14:36:41.418Z,8.17
2022-12-06T14:39:17.589Z,8.40
2022-12-06T14:42:18.954Z,8.77
2022-12-06T14:44:49.654Z,7.40
2022-12-06T14:47:21.792Z,7.80
2022-12-06T14:50:10.548Z,7.83
2022-12-06T14:53:01.609Z,9.90
2022-12-06T14:55:31.736Z,8.67
2022-12-06T14:58:02.047Z,8.90
2022-12-06T15:00:37.478Z,8.10
2022-12-06T15:03:24.225Z,8.33
2022-12-06T15:06:09.351Z,8.00
2022-12-06T15:08:39.212Z,10.17
2022-12-06T15:11:42.463Z,9.43
2022-12-06T15:14:16.002Z,8.90
2022-12-06T15:16:46.451Z,9.50
2022-12-06T15:19:17.413Z,10.37
2022-12-06T15:21:45.550Z,9.80
2022-12-06T15:24:19.194Z,9.10
2022-12-06T15:26:47.393Z,8.63
2022-12-06T15:29:15.962Z,9.10
2022-12-06T15:31:45.800Z,8.80
2022-12-06T15:34:23.817Z,9.50
2022-12-06T15:37:09.038Z,9.37
2022-12-06T15:39:41.582Z,8.20
2022-12-06T15:42:17.693Z,8.63
2022-12-06T15:44:49.550Z,9.20
2022-12-06T15:47:19.451Z,9.07
2022-12-06T15:49:50.967Z,7.70
2022-12-06T15:52:23.139Z,8.43
2022-12-06T15:54:51.570Z,7.40
2022-12-06T15:57:19.638Z,7.13
2022-12-06T15:59:47.831Z,8.50
2022-12-06T16:02:19.653Z,8.70
2022-12-06T16:04:51.164Z,9.87
2022-12-06T16:07:19.711Z,9.27
2022-12-06T16:09:48.809Z,10.20
2022-12-06T16:12:17.264Z,11.23
2022-12-06T16:14:45.349Z,9.73
2022-12-06T16:17:13.713Z,11.10
2022-12-06T16:19:59.344Z,11.30
2022-12-06T16:22:42.729Z,11.87
2022-12-06T16:25:11.496Z,11.37
2022-12-06T16:27:39.623Z,11.00
2022-12-06T16:30:09.157Z,11.57
2022-12-06T16:32:37.345Z,11.60
2022-12-06T16:35:06.053Z,12.50
2022-12-06T16:37:35.570Z,13.03
2022-12-06T16:40:04.054Z,13.70
2022-12-06T16:42:32.254Z,12.57
2022-12-06T16:45:00.736Z,12.97
2022-12-06T16:49:56.762Z,14.63
2022-12-06T16:52:24.891Z,12.63
2022-12-06T16:54:54.761Z,13.77
2022-12-06T16:57:22.943Z,12.00
2022-12-06T16:59:51.173Z,12.70
2022-12-06T17:02:27.846Z,12.60
2022-12-06T17:04:56.648Z,12.37
2022-12-06T17:07:26.037Z,11.70
2022-12-06T17:09:55.526Z,12.70
2022-12-06T17:12:23.769Z,11.90
2022-12-06T17:14:52.132Z,12.90
2022-12-06T17:17:25.958Z,13.00
2022-12-06T17:19:56.080Z,12.10
2022-12-06T17:22:24.809Z,13.00
2022-12-06T17:24:53.001Z,13.27
2022-12-06T17:27:22.510Z,12.97
2022-12-06T17:29:50.734Z,12.47
2022-12-06T17:32:20.569Z,13.17
2022-12-06T17:34:48.833Z,12.40
2022-12-06T17:37:17.082Z,10.67
2022-12-06T17:39:45.382Z,11.80
2022-12-06T17:42:31.331Z,11.67
2022-12-06T17:45:01.720Z,11.10
2022-12-06T17:47:30.394Z,10.97
2022-12-06T17:49:58.778Z,12.00
2022-12-06T17:52:27.116Z,11.87
2022-12-06T17:54:55.253Z,11.43
2022-12-06T17:57:23.306Z,11.73
2022-12-06T17:59:51.483Z,11.23
2022-12-06T18:02:24.052Z,10.13
2022-12-06T18:04:53.974Z,10.43
2022-12-06T18:07:22.150Z,10.30
2022-12-06T18:09:50.625Z,11.73
2022-12-06T18:12:20.423Z,10.40
2022-12-06T18:14:48.497Z,11.10
2022-12-06T18:17:16.595Z,12.30
2022-12-06T18:19:47.258Z,12.57
2022-12-06T18:22:16.512Z,13.13
2022-12-06T18:24:44.829Z,13.23
2022-12-06T18:27:13.514Z,11.30
2022-12-06T18:29:41.666Z,12.80
2022-12-06T18:32:09.852Z,13.07
2022-12-06T18:34:38.264Z,13.40
2022-12-06T18:37:07.757Z,11.93
2022-12-06T18:39:35.843Z,12.87
2022-12-06T18:42:03.991Z,12.40
2022-12-06T18:44:32.318Z,13.20
2022-12-06T18:47:00.685Z,12.97
2022-12-06T18:49:28.892Z,12.33
2022-12-06T18:51:57.008Z,13.17
2022-12-06T18:54:27.306Z,13.43
2022-12-06T18:56:57.382Z,12.97
2022-12-06T18:59:27.779Z,11.63
2022-12-06T19:01:57.149Z,12.80
2022-12-06T19:04:25.345Z,12.20
2022-12-06T19:06:54.410Z,11.00
2022-12-06T19:09:23.431Z,12.60
2022-12-06T19:11:53.057Z,12.67
2022-12-06T19:14:23.181Z,10.37
2022-12-06T19:16:52.959Z,11.40
2022-12-06T19:19:23.241Z,10.20
2022-12-06T19:21:53.049Z,10.83
2022-12-06T19:24:23.233Z,10.87
2022-12-06T19:26:54.762Z,11.10
2022-12-06T19:29:23.217Z,10.60
2022-12-06T19:31:51.580Z,11.30
2022-12-06T19:34:22.133Z,10.57
2022-12-06T19:36:51.079Z,11.00
2022-12-06T19:39:19.733Z,12.07
2022-12-06T19:42:06.117Z,11.90
2022-12-06T19:44:36.378Z,10.40
2022-12-06T19:47:04.946Z,10.60
2022-12-06T19:49:33.233Z,11.23
2022-12-06T19:52:01.459Z,12.20
2022-12-06T19:54:31.325Z,12.20
2022-12-06T19:57:01.137Z,13.10
2022-12-06T19:59:31.900Z,11.57
2022-12-06T20:02:02.104Z,10.80
2022-12-06T20:04:32.191Z,11.77
2022-12-06T20:07:00.681Z,12.70
2022-12-06T20:09:30.782Z,13.50
2022-12-06T20:12:03.489Z,12.30
2022-12-06T20:14:35.996Z,12.63
2022-12-06T20:17:07.321Z,12.03
2022-12-06T20:19:35.636Z,13.90
2022-12-06T20:22:03.896Z,13.97
2022-12-06T20:24:32.541Z,14.03
2022-12-06T20:27:00.849Z,13.23
2022-12-06T20:29:30.171Z,14.50
2022-12-06T20:31:59.529Z,13.40
2022-12-06T20:34:34.349Z,17.30
2022-12-06T20:37:04.533Z,13.67
2022-12-06T20:39:35.088Z,14.13
2022-12-06T20:42:05.418Z,14.03
2022-12-06T20:44:34.179Z,13.43
2022-12-06T20:47:02.878Z,13.80
2022-12-06T20:49:32.482Z,12.90
2022-12-06T20:52:02.697Z,13.70
2022-12-06T20:54:31.055Z,13.00
2022-12-06T20:56:59.155Z,13.23
2022-12-06T20:59:27.466Z,17.50
2022-12-06T21:01:56.145Z,17.77
2022-12-06T21:04:24.351Z,16.73
2022-12-06T21:06:53.915Z,16.03
2022-12-06T21:09:22.270Z,15.47
2022-12-06T21:11:50.369Z,17.33
2022-12-06T21:14:19.161Z,25.50
2022-12-06T21:16:47.364Z,19.87
2022-12-06T21:19:17.932Z,23.03
2022-12-06T21:21:48.537Z,22.20
2022-12-06T21:24:20.512Z,18.50
2022-12-06T21:26:49.220Z,18.23
2022-12-06T21:29:20.102Z,15.40
2022-12-06T21:31:49.205Z,15.77
2022-12-06T21:34:17.332Z,15.20
2022-12-06T21:36:45.760Z,15.70
2022-12-06T21:39:15.583Z,15.03
2022-12-06T21:41:45.851Z,14.63
2022-12-06T21:44:13.922Z,14.70
2022-12-06T21:46:42.034Z,15.40
2022-12-06T21:49:10.711Z,15.00
2022-12-06T21:51:38.792Z,15.60
2022-12-06T21:54:06.972Z,14.30
2022-12-06T21:56:35.346Z,15.87
2022-12-06T21:59:04.925Z,14.47
2022-12-06T22:01:33.323Z,16.33
2022-12-06T22:04:04.446Z,16.10
2022-12-06T22:06:33.586Z,17.43
2022-12-06T22:09:05.632Z,16.90
2022-12-06T22:11:34.161Z,18.17
2022-12-06T22:14:05.029Z,15.10
2022-12-06T22:16:33.426Z,15.00
2022-12-06T22:19:01.732Z,15.43
2022-12-06T22:21:31.770Z,16.67
2022-12-06T22:24:00.305Z,15.87
2022-12-06T22:26:31.034Z,15.87
2022-12-06T22:28:59.929Z,16.23
2022-12-06T22:31:31.566Z,15.30
2022-12-06T22:34:00.615Z,15.03
2022-12-06T22:36:29.749Z,15.20
2022-12-06T22:39:01.441Z,16.20
2022-12-06T22:41:30.278Z,16.27
2022-12-06T22:44:01.131Z,16.63
2022-12-06T22:46:31.272Z,15.17
2022-12-06T22:49:00.472Z,15.30
2022-12-06T22:51:30.447Z,14.17
2022-12-06T22:54:00.398Z,13.10
2022-12-06T22:56:30.257Z,15.73
2022-12-06T22:59:00.407Z,14.20
2022-12-06T23:01:31.843Z,14.43
2022-12-06T23:04:02.466Z,14.07
2022-12-06T23:06:31.023Z,16.80
2022-12-06T23:08:59.393Z,14.93
2022-12-06T23:11:28.927Z,15.03
2022-12-06T23:13:57.839Z,14.10
2022-12-06T23:16:27.903Z,15.83
2022-12-06T23:18:58.446Z,13.70
2022-12-06T23:21:28.983Z,15.33
2022-12-06T23:23:58.882Z,14.73
2022-12-06T23:26:30.030Z,15.10
2022-12-06T23:28:58.184Z,18.10
2022-12-06T23:31:28.896Z,18.90
2022-12-06T23:34:01.327Z,17.43
2022-12-06T23:36:32.045Z,16.43
2022-12-06T23:39:00.701Z,17.20
2022-12-06T23:41:31.097Z,15.00
2022-12-06T23:44:00.439Z,17.50
2022-12-06T23:46:30.743Z,17.10
2022-12-06T23:49:00.701Z,17.13
2022-12-06T23:51:31.571Z,16.93
2022-12-06T23:54:00.887Z,17.93
2022-12-06T23:56:30.969Z,16.87
2022-12-06T23:59:01.015Z,15.93
